Time;durP1;ratioP1;P1;durP2;ratioP2;P2;SDS_P1;SDS_P2;PMS_P1;PMS_P2;Temp;Humidity;BMP_temperature;BMP_pressure;BME280_temperature;BME280_humidity;BME280_pressure;Samples;Min_cycle;Max_cycle;Signal;HPM_P1;HPM_P2
2021/11/21 00:01:19;;;;;;;;;;;;;;;4.64;78.11;99662.88;4936601;29;19961;-83
2021/11/21 00:03:45;;;;;;;;;;;;;;;4.68;77.96;99667.19;4954027;28;19926;-85
2021/11/21 00:06:10;;;;;;;;;;;;;;;4.65;77.86;99662.84;4936455;29;19962;-84
2021/11/21 00:08:35;;;;;;;;;;;;;;;4.64;77.51;99662.88;4935379;29;19989;-83
2021/11/21 00:11:01;;;;;;;;;;;;;;;4.73;77.53;99654.81;4935793;29;20362;-85
2021/11/21 00:13:26;;;;;;;;;;;;;;;4.67;77.21;99647.91;4935998;28;19965;-85
2021/11/21 00:15:51;;;;;;;;;;;;;;;4.71;77.27;99652.22;4936483;29;20385;-83
2021/11/21 00:18:17;;;;;;;;;;;;;;;4.72;77.37;99645.22;4936365;29;20013;-83
2021/11/21 00:20:43;;;;;;;;;;;;;;;4.72;76.88;99637.34;4936293;29;20302;-86
2021/11/21 00:23:08;;;;;;;;;;;;;;;4.76;77.39;99636.38;4935952;28;20116;-84
2021/11/21 00:25:34;;;;;;;;;;;;;;;4.78;76.95;99639.81;4935671;29;20385;-84
2021/11/21 00:27:59;;;;;;;;;;;;;;;4.78;77.02;99634.56;4935919;29;20412;-86
2021/11/21 00:30:25;;;;;;;;;;;;;;;4.76;77.00;99628.50;4936258;29;20026;-83
2021/11/21 00:32:50;;;;;;;;;;;;;;;4.80;76.92;99637.16;4953312;28;19925;-82
2021/11/21 00:35:15;;;;;;;;;;;;;;;4.78;76.91;99631.09;4936295;29;20131;-83
2021/11/21 00:37:40;;;;;;;;;;;;;;;4.80;77.10;99630.16;4935623;29;19923;-85
2021/11/21 00:40:07;;;;;;;;;;;;;;;4.80;77.40;99617.03;4951747;28;19919;-85
2021/11/21 00:42:33;;;;;;;;;;;;;;;4.86;77.60;99622.16;4946455;28;20398;-83
2021/11/21 00:44:58;;;;;;;;;;;;;;;4.89;77.46;99622.06;4936299;29;20017;-86
2021/11/21 00:47:23;;;;;;;;;;;;;;;4.89;77.30;99616.81;4953398;28;20038;-86
2021/11/21 00:49:48;;;;;;;;;;;;;;;4.93;77.31;99612.41;4935288;29;19932;-83
2021/11/21 00:52:14;;;;;;;;;;;;;;;4.94;77.37;99608.84;4935046;28;19926;-83
2021/11/21 00:54:52;;;;;;;;;;;;;;;5.15;79.07;99606.63;4934341;29;19926;-87
2021/11/21 00:57:17;;;;;;;;;;;;;;;5.26;80.75;99602.88;4934937;29;19923;-85
2021/11/21 00:59:43;;;;;;;;;;;;;;;5.34;82.09;99596.56;4953290;28;20382;-85
2021/11/21 01:02:11;;;;;;;;;;;;;;;5.30;83.15;99590.50;4951080;28;19974;-82
2021/11/21 01:04:37;;;;;;;;;;;;;;;5.35;83.89;99596.50;4947990;28;19958;-86
2021/11/21 01:07:03;;;;;;;;;;;;;;;5.40;84.77;99591.16;4935297;29;19927;-84
2021/11/21 01:09:28;;;;;;;;;;;;;;;5.17;84.68;99589.06;4952270;28;19926;-85
2021/11/21 01:11:54;;;;;;;;;;;;;;;4.98;85.97;99586.00;4936022;29;19923;-85
2021/11/21 01:14:19;;;;;;;;;;;;;;;4.88;86.71;99583.63;4931319;29;19954;-83
2021/11/21 01:16:45;;;;;;;;;;;;;;;4.72;89.35;99585.72;4953272;28;19929;-83
2021/11/21 01:19:10;;;;;;;;;;;;;;;4.88;93.05;99581.00;4935272;28;19927;-87
2021/11/21 01:21:35;;;;;;;;;;;;;;;5.24;97.92;99564.38;4936102;29;19922;-85
2021/11/21 01:24:00;;;;;;;;;;;;;;;5.45;100.00;99574.34;4952255;28;19965;-85
2021/11/21 01:26:26;;;;;;;;;;;;;;;5.62;100.00;99566.03;4936270;29;20374;-89
2021/11/21 01:28:51;;;;;;;;;;;;;;;5.76;100.00;99573.56;4935962;29;20560;-83
2021/11/21 01:31:17;;;;;;;;;;;;;;;5.86;100.00;99563.66;4936084;28;19926;-88
2021/11/21 01:33:42;;;;;;;;;;;;;;;5.96;100.00;99559.91;4953418;29;20405;-86
2021/11/21 01:36:07;;;;;;;;;;;;;;;6.22;100.00;99549.56;4953387;28;19922;-82
2021/11/21 01:38:33;;;;;;;;;;;;;;;6.57;100.00;99551.13;4934848;29;19961;-91
2021/11/21 01:40:58;;;;;;;;;;;;;;;6.61;100.00;99536.13;4952449;28;20412;-82
2021/11/21 04:19:58;;;;;;;;;;;;;;;3.26;99.23;99389.47;5233408;23;19933;-85
2021/11/21 04:22:23;;;;;;;;;;;;;;;3.13;98.95;99380.13;4981338;28;20012;-86
2021/11/21 04:24:49;;;;;;;;;;;;;;;2.90;98.23;99384.03;4982755;28;19921;-85
2021/11/21 04:27:14;;;;;;;;;;;;;;;2.88;98.13;99384.06;4982504;28;20436;-83
2021/11/21 04:29:39;;;;;;;;;;;;;;;2.88;97.33;99383.19;4983271;28;19922;-83
2021/11/21 04:32:05;;;;;;;;;;;;;;;2.63;96.75;99378.41;4965297;28;19980;-85
2021/11/21 04:34:30;;;;;;;;;;;;;;;2.58;96.57;99376.75;4981502;28;19925;-83
2021/11/21 04:36:58;;;;;;;;;;;;;;;2.48;96.33;99374.28;4983174;28;20336;-86
2021/11/21 04:39:23;;;;;;;;;;;;;;;2.48;97.50;99369.03;4973034;28;19914;-87
2021/11/21 04:41:48;;;;;;;;;;;;;;;2.41;97.68;99382.25;4982800;28;20009;-84
2021/11/21 04:44:14;;;;;;;;;;;;;;;2.22;97.40;99376.44;4982877;28;19918;-84
2021/11/21 04:46:39;;;;;;;;;;;;;;;2.21;97.02;99379.97;4982776;28;19993;-83
2021/11/21 04:49:04;;;;;;;;;;;;;;;2.13;96.87;99374.84;4981230;28;19925;-84
2021/11/21 04:51:30;;;;;;;;;;;;;;;2.05;96.53;99368.88;4982664;28;20372;-84
2021/11/21 04:53:56;;;;;;;;;;;;;;;1.91;95.98;99364.69;4963689;28;19956;-87
2021/11/21 04:56:22;;;;;;;;;;;;;;;1.98;95.83;99371.56;4965295;28;19965;-83
2021/11/21 04:58:47;;;;;;;;;;;;;;;1.86;95.00;99365.66;4982331;28;19918;-82
2021/11/21 05:01:12;;;;;;;;;;;;;;;1.84;95.29;99362.22;4982570;28;20377;-83
2021/11/21 05:03:37;;;;;;;;;;;;;;;2.03;97.28;99371.50;4964305;28;20005;-88
2021/11/21 05:06:03;;;;;;;;;;;;;;;2.26;99.14;99371.13;4982645;28;19914;-83
2021/11/21 05:08:28;;;;;;;;;;;;;;;2.49;100.00;99356.81;4982083;28;19933;-82
2021/11/21 05:10:53;;;;;;;;;;;;;;;2.60;100.00;99365.38;4982594;28;20347;-83
2021/11/21 05:13:18;;;;;;;;;;;;;;;2.68;100.00;99368.72;4982842;28;19922;-84
2021/11/21 05:15:44;;;;;;;;;;;;;;;2.75;100.00;99360.78;4982551;28;19922;-84
2021/11/21 05:18:09;;;;;;;;;;;;;;;2.82;100.00;99362.38;4966926;28;20916;-83
2021/11/21 05:20:35;;;;;;;;;;;;;;;2.86;100.00;99364.91;4968531;28;19929;-83
2021/11/21 05:23:01;;;;;;;;;;;;;;;2.88;100.00;99355.25;4986288;28;19949;-83
2021/11/21 05:25:26;;;;;;;;;;;;;;;2.92;100.00;99361.31;4985970;28;19918;-83
2021/11/21 05:27:51;;;;;;;;;;;;;;;2.91;100.00;99357.81;5000025;28;19921;-83
2021/11/21 05:30:18;;;;;;;;;;;;;;;2.97;100.00;99361.22;4985816;28;19922;-82
2021/11/21 05:32:43;;;;;;;;;;;;;;;3.06;100.00;99361.94;4968118;28;19928;-87
2021/11/21 05:35:08;;;;;;;;;;;;;;;3.15;100.00;99354.78;4985110;28;19925;-83
2021/11/21 05:37:35;;;;;;;;;;;;;;;3.21;100.00;99352.06;4985786;28;19929;-83
2021/11/21 05:40:01;;;;;;;;;;;;;;;3.20;100.00;99350.31;4968212;28;19921;-83
2021/11/21 05:42:28;;;;;;;;;;;;;;;3.18;100.00;99355.59;4985555;28;19940;-83
2021/11/21 05:44:54;;;;;;;;;;;;;;;3.20;100.00;99352.94;4968513;28;19918;-83
2021/11/21 05:47:19;;;;;;;;;;;;;;;3.25;100.00;99351.94;4985387;28;19918;-83
2021/11/21 05:49:44;;;;;;;;;;;;;;;3.22;100.00;99346.78;4984209;28;19975;-82
2021/11/21 05:52:09;;;;;;;;;;;;;;;3.20;100.00;99334.59;4986120;28;19918;-83
2021/11/21 05:54:35;;;;;;;;;;;;;;;3.20;100.00;99332.84;4985741;28;19918;-82
2021/11/21 05:57:00;;;;;;;;;;;;;;;3.23;100.00;99337.16;4984441;28;19922;-82
2021/11/21 05:59:25;;;;;;;;;;;;;;;3.19;100.00;99339.00;4985404;28;19918;-85
2021/11/21 06:01:50;;;;;;;;;;;;;;;3.21;100.00;99344.19;4968350;28;19925;-83
2021/11/21 06:04:16;;;;;;;;;;;;;;;3.17;100.00;99346.00;4984350;28;19922;-83
2021/11/21 06:06:41;;;;;;;;;;;;;;;3.20;100.00;99342.47;4985132;28;20010;-83
2021/11/21 06:09:06;;;;;;;;;;;;;;;3.18;100.00;99345.13;4985228;28;19924;-83
2021/11/21 06:11:31;;;;;;;;;;;;;;;3.21;100.00;99338.97;4985680;28;19926;-82
2021/11/21 06:13:57;;;;;;;;;;;;;;;3.17;100.00;99340.75;4967952;28;19929;-83
2021/11/21 06:16:22;;;;;;;;;;;;;;;3.16;100.00;99328.56;4967574;28;19925;-84
2021/11/21 06:18:48;;;;;;;;;;;;;;;3.17;100.00;99327.66;4974371;28;19918;-82
2021/11/21 06:21:13;;;;;;;;;;;;;;;3.17;100.00;99325.03;4967302;28;19934;-83
2021/11/21 06:23:38;;;;;;;;;;;;;;;3.22;100.00;99324.97;4983654;28;19972;-83
2021/11/21 13:43:33;;;;;;;;;;;;;;;6.00;100.00;99155.66;5114626;23;19942;-86
2021/11/21 13:45:58;;;;;;;;;;;;;;;6.06;100.00;99152.81;4945663;29;19926;-82
2021/11/21 13:48:27;;;;;;;;;;;;;;;6.15;100.00;99154.28;4946061;29;20376;-82
2021/11/21 13:50:52;;;;;;;;;;;;;;;6.21;100.00;99145.28;4946911;29;19969;-82
2021/11/21 13:53:17;;;;;;;;;;;;;;;6.25;100.00;99150.38;4946212;29;20421;-83
2021/11/21 13:55:42;;;;;;;;;;;;;;;6.31;100.00;99150.19;4947115;29;20396;-83
2021/11/21 13:58:08;;;;;;;;;;;;;;;6.34;100.00;99154.50;4945763;29;20309;-83
2021/11/21 14:00:33;;;;;;;;;;;;;;;6.39;100.00;99151.69;4946226;29;19915;-83
2021/11/21 14:03:05;;;;;;;;;;;;;;;6.45;100.00;99151.47;4946939;29;20322;-83
2021/11/21 14:05:30;;;;;;;;;;;;;;;6.49;100.00;99153.06;4946441;29;19923;-85
2021/11/21 14:08:04;;;;;;;;;;;;;;;6.53;100.00;99149.41;4947196;29;19919;-86
2021/11/21 14:10:32;;;;;;;;;;;;;;;6.58;100.00;99152.75;4946325;29;19927;-83
2021/11/21 14:13:08;;;;;;;;;;;;;;;6.61;100.00;99157.03;4945890;28;20017;-85
2021/11/21 14:15:33;;;;;;;;;;;;;;;6.61;100.00;99151.78;4946610;29;19918;-82
2021/11/21 14:18:02;;;;;;;;;;;;;;;6.66;100.00;99149.84;4946842;29;19937;-82
2021/11/21 14:20:41;;;;;;;;;;;;;;;6.68;100.00;99148.00;4946463;29;20413;-83
2021/11/21 14:23:09;;;;;;;;;;;;;;;6.75;100.00;99145.97;4946887;29;19989;-82
2021/11/21 14:25:35;;;;;;;;;;;;;;;6.67;100.00;99147.13;4946373;29;19926;-84
2021/11/21 14:28:02;;;;;;;;;;;;;;;5.15;100.00;99160.13;4945055;29;19934;-82
2021/11/21 14:30:27;;;;;;;;;;;;;;;4.22;100.00;99157.53;4945453;29;20365;-83
2021/11/21 14:33:09;;;;;;;;;;;;;;;3.75;100.00;99147.38;4946615;28;19923;-85
2021/11/21 14:35:39;;;;;;;;;;;;;;;3.42;100.00;99149.91;4946300;28;20111;-86
2021/11/21 14:38:09;;;;;;;;;;;;;;;3.26;100.00;99151.19;4945025;29;20362;-86
2021/11/21 14:40:34;;;;;;;;;;;;;;;3.14;97.87;99154.09;4944964;29;20006;-83
2021/11/21 14:42:59;;;;;;;;;;;;;;;2.94;95.32;99152.78;4943133;29;20489;-85
2021/11/21 14:45:25;;;;;;;;;;;;;;;2.85;93.51;99158.19;4946280;29;19918;-84
2021/11/21 14:47:50;;;;;;;;;;;;;;;2.57;92.36;99161.41;4944873;28;20577;-84
2021/11/21 14:50:16;;;;;;;;;;;;;;;2.55;91.41;99160.56;4944306;29;19919;-84
2021/11/21 14:52:41;;;;;;;;;;;;;;;2.42;90.65;99161.69;4945053;29;19923;-83
2021/11/21 14:55:09;;;;;;;;;;;;;;;2.26;90.15;99163.75;4945624;29;19919;-85
2021/11/21 14:57:40;;;;;;;;;;;;;;;2.15;89.66;99166.56;4944276;29;19930;-86
2021/11/21 15:00:06;;;;;;;;;;;;;;;2.05;89.15;99165.00;4944180;29;19930;-85
2021/11/21 15:02:31;;;;;;;;;;;;;;;1.92;89.17;99160.00;4944811;29;19918;-82
2021/11/21 15:04:57;;;;;;;;;;;;;;;2.07;92.09;99158.00;4944384;29;19919;-82
2021/11/21 15:07:22;;;;;;;;;;;;;;;2.39;95.67;99153.91;4944236;29;19930;-82
2021/11/21 15:09:47;;;;;;;;;;;;;;;2.58;98.14;99150.03;4952292;29;19926;-82
2021/11/21 15:12:12;;;;;;;;;;;;;;;2.68;99.61;99151.59;4943778;29;19929;-82
2021/11/21 15:14:38;;;;;;;;;;;;;;;2.76;100.00;99147.94;4944589;29;19922;-83
2021/11/21 15:17:03;;;;;;;;;;;;;;;2.76;100.00;99147.94;4944506;29;19986;-83
2021/11/21 15:19:29;;;;;;;;;;;;;;;2.87;100.00;99151.16;4952276;28;20009;-82
2021/11/21 15:21:54;;;;;;;;;;;;;;;2.86;100.00;99152.09;4944298;29;19922;-82
2021/11/21 15:24:19;;;;;;;;;;;;;;;2.87;100.00;99153.78;4944080;29;19966;-82
2021/11/21 15:26:47;;;;;;;;;;;;;;;2.88;100.00;99160.75;4942564;29;19994;-83
2021/11/21 15:29:14;;;;;;;;;;;;;;;2.98;100.00;99162.25;4944357;29;19969;-84
2021/11/21 15:31:43;;;;;;;;;;;;;;;2.92;100.00;99157.19;4945163;29;20660;-82
2021/11/21 15:34:08;;;;;;;;;;;;;;;2.89;100.00;99160.72;4944971;29;19930;-85
2021/11/21 15:36:33;;;;;;;;;;;;;;;2.96;100.00;99163.22;4945894;28;19962;-83
2021/11/21 15:39:00;;;;;;;;;;;;;;;2.94;100.00;99162.41;4945203;28;19919;-83
2021/11/21 15:41:25;;;;;;;;;;;;;;;2.93;100.00;99161.50;4943900;29;19945;-83
2021/11/21 15:43:50;;;;;;;;;;;;;;;2.96;100.00;99160.59;4944555;28;20379;-83
2021/11/21 15:46:15;;;;;;;;;;;;;;;2.96;100.00;99164.06;4943925;29;20001;-84
2021/11/21 15:48:41;;;;;;;;;;;;;;;3.00;100.00;99162.22;4939177;29;20229;-86
2021/11/21 15:51:07;;;;;;;;;;;;;;;3.00;100.00;99167.47;4944368;28;20542;-83
2021/11/21 15:53:33;;;;;;;;;;;;;;;2.98;100.00;99164.03;4943458;29;19918;-83
2021/11/21 15:55:59;;;;;;;;;;;;;;;3.00;100.00;99165.72;4944889;28;20471;-85
2021/11/21 15:58:24;;;;;;;;;;;;;;;3.05;100.00;99158.63;4943288;28;20258;-83
2021/11/21 16:00:49;;;;;;;;;;;;;;;3.04;99.60;99166.50;4943936;29;20016;-82
2021/11/21 16:03:16;;;;;;;;;;;;;;;3.05;98.37;99163.88;4950344;29;19966;-85
2021/11/21 16:05:42;;;;;;;;;;;;;;;3.06;97.44;99168.22;4951414;28;20436;-86
2021/11/21 16:08:09;;;;;;;;;;;;;;;3.12;96.25;99174.22;4944798;28;19922;-85
2021/11/21 16:10:34;;;;;;;;;;;;;;;3.14;95.43;99180.25;4944667;29;19925;-84
2021/11/21 16:13:00;;;;;;;;;;;;;;;3.16;94.70;99181.06;4943618;28;19927;-83
2021/11/21 16:15:25;;;;;;;;;;;;;;;3.11;93.97;99175.09;4943417;29;19990;-86
2021/11/21 16:17:51;;;;;;;;;;;;;;;3.11;93.47;99183.78;4944310;29;19930;-83
2021/11/21 16:20:18;;;;;;;;;;;;;;;3.15;92.77;99179.38;4943621;29;19961;-85
2021/11/21 16:22:43;;;;;;;;;;;;;;;3.13;92.34;99178.53;4944358;29;19918;-83
2021/11/21 16:25:10;;;;;;;;;;;;;;;3.18;91.71;99174.06;4943904;29;20302;-83
2021/11/21 16:27:35;;;;;;;;;;;;;;;3.10;91.28;99176.84;4943150;29;19926;-82
2021/11/21 16:30:01;;;;;;;;;;;;;;;3.15;90.89;99177.59;4944565;28;19918;-83
2021/11/21 16:32:26;;;;;;;;;;;;;;;3.16;90.35;99181.06;4944236;28;20343;-85
2021/11/21 16:34:51;;;;;;;;;;;;;;;3.16;90.04;99184.56;4944112;29;20267;-85
2021/11/21 16:37:17;;;;;;;;;;;;;;;3.19;89.78;99188.88;4944599;28;19945;-86
2021/11/21 16:39:42;;;;;;;;;;;;;;;3.19;89.57;99186.25;4944414;28;19922;-83
2021/11/21 16:42:11;;;;;;;;;;;;;;;3.19;89.11;99197.59;4941656;29;19919;-83
2021/11/21 16:44:37;;;;;;;;;;;;;;;3.17;88.83;99191.50;4944261;29;19922;-84
2021/11/21 16:47:03;;;;;;;;;;;;;;;3.14;88.65;99188.97;4944328;28;19923;-87
2021/11/21 16:49:30;;;;;;;;;;;;;;;3.12;88.64;99187.28;4943151;29;19919;-85
2021/11/21 16:51:55;;;;;;;;;;;;;;;3.13;88.17;99200.34;4942941;29;20054;-85
2021/11/21 16:54:21;;;;;;;;;;;;;;;3.12;87.96;99192.53;4944399;28;20041;-85
2021/11/21 16:56:47;;;;;;;;;;;;;;;3.13;87.87;99194.22;4942922;29;20358;-85
2021/11/21 16:59:15;;;;;;;;;;;;;;;3.15;87.71;99197.69;4943801;29;20366;-84
2021/11/21 17:01:41;;;;;;;;;;;;;;;3.17;87.51;99202.00;4949853;28;19969;-85
2021/11/21 17:04:07;;;;;;;;;;;;;;;3.18;87.27;99198.50;4944060;28;20033;-85
2021/11/21 17:06:32;;;;;;;;;;;;;;;3.17;87.22;99202.00;4944378;28;19927;-85
2021/11/21 17:08:57;;;;;;;;;;;;;;;3.15;86.66;99202.94;4943864;29;20346;-85
2021/11/21 17:11:23;;;;;;;;;;;;;;;3.16;86.58;99204.63;4944267;28;19922;-83
2021/11/21 17:13:49;;;;;;;;;;;;;;;3.16;86.44;99208.16;4947004;28;20017;-83
2021/11/21 17:16:14;;;;;;;;;;;;;;;3.14;86.38;99211.69;4947561;29;19922;-84
2021/11/21 17:18:40;;;;;;;;;;;;;;;3.15;85.95;99213.41;4948090;29;19922;-84
2021/11/21 17:21:05;;;;;;;;;;;;;;;3.24;85.90;99210.59;4947872;28;19991;-84
2021/11/21 17:23:31;;;;;;;;;;;;;;;3.17;85.59;99215.09;4946471;29;19919;-84
2021/11/21 17:25:57;;;;;;;;;;;;;;;3.18;85.58;99213.34;4947602;29;20009;-83
2021/11/21 17:28:22;;;;;;;;;;;;;;;3.22;85.49;99210.63;4945458;29;20377;-83
2021/11/21 17:30:48;;;;;;;;;;;;;;;3.22;85.20;99209.75;4947512;29;19919;-87
2021/11/21 17:33:13;;;;;;;;;;;;;;;3.23;85.19;99216.72;4946058;29;19922;-83
2021/11/21 17:35:38;;;;;;;;;;;;;;;3.20;84.89;99214.16;4946813;28;19915;-86
2021/11/21 17:38:05;;;;;;;;;;;;;;;3.16;84.73;99221.22;4947155;28;20267;-84
2021/11/21 17:40:30;;;;;;;;;;;;;;;3.22;84.58;99209.75;4945543;29;19977;-85
2021/11/21 17:42:56;;;;;;;;;;;;;;;3.20;84.28;99220.25;4945438;28;19930;-85
2021/11/21 17:45:21;;;;;;;;;;;;;;;3.21;84.43;99223.75;4946153;28;19922;-86
2021/11/21 17:47:46;;;;;;;;;;;;;;;3.24;84.34;99229.78;4946315;29;19922;-86
2021/11/21 17:50:13;;;;;;;;;;;;;;;3.23;84.28;99227.19;4945832;29;20020;-83
2021/11/21 17:52:40;;;;;;;;;;;;;;;3.30;84.56;99228.75;4946097;28;19977;-84
2021/11/21 17:55:07;;;;;;;;;;;;;;;3.23;84.21;99230.66;4946092;28;19922;-83
2021/11/21 17:57:32;;;;;;;;;;;;;;;3.43;84.61;99235.47;4944879;29;20381;-86
2021/11/21 17:59:58;;;;;;;;;;;;;;;3.37;83.65;99232.97;4945969;28;19919;-87
2021/11/21 18:02:25;;;;;;;;;;;;;;;3.45;84.30;99236.28;4944623;29;19926;-82
2021/11/21 18:04:51;;;;;;;;;;;;;;;3.49;84.14;99244.09;4945978;29;19922;-86
2021/11/21 18:07:19;;;;;;;;;;;;;;;3.47;83.66;99228.41;4945705;29;19929;-83
2021/11/21 18:09:45;;;;;;;;;;;;;;;3.61;82.95;99239.41;4945729;29;19919;-87
2021/11/21 18:12:10;;;;;;;;;;;;;;;3.55;83.21;99238.72;4944390;29;20381;-86
2021/11/21 18:14:35;;;;;;;;;;;;;;;3.60;82.71;99242.06;4945227;29;19923;-87
2021/11/21 18:17:01;;;;;;;;;;;;;;;3.61;82.38;99242.03;4945894;28;20370;-85
2021/11/21 18:19:26;;;;;;;;;;;;;;;3.59;82.22;99245.59;4945556;29;19918;-83
2021/11/21 18:21:51;;;;;;;;;;;;;;;3.64;82.36;99249.84;4945510;29;19926;-86
2021/11/21 18:24:18;;;;;;;;;;;;;;;3.73;82.74;99246.13;4946549;28;20450;-83
2021/11/21 18:26:44;;;;;;;;;;;;;;;3.68;82.02;99260.25;4975585;28;19965;-86
2021/11/21 18:29:10;;;;;;;;;;;;;;;3.72;82.37;99254.91;4945894;28;19958;-85
2021/11/21 18:31:35;;;;;;;;;;;;;;;3.74;81.80;99262.72;4945110;28;19977;-85
2021/11/21 18:34:01;;;;;;;;;;;;;;;3.74;81.10;99262.72;4943138;29;19926;-85
2021/11/21 18:36:28;;;;;;;;;;;;;;;3.77;81.36;99262.66;4945309;28;19982;-84
2021/11/21 18:38:53;;;;;;;;;;;;;;;3.66;80.78;99264.66;4943176;29;20459;-86
2021/11/21 18:41:19;;;;;;;;;;;;;;;3.67;80.36;99261.13;4945039;29;19931;-84
2021/11/21 18:43:44;;;;;;;;;;;;;;;3.69;80.49;99267.22;4950845;29;20005;-86
2021/11/21 18:46:09;;;;;;;;;;;;;;;3.68;80.51;99268.09;4951262;28;19942;-84
2021/11/21 18:48:35;;;;;;;;;;;;;;;3.65;80.29;99271.66;4943887;29;20314;-86
2021/11/21 18:51:00;;;;;;;;;;;;;;;3.63;80.17;99265.59;4942924;29;19931;-85
2021/11/21 18:53:27;;;;;;;;;;;;;;;3.71;80.68;99263.66;4943251;29;19922;-86
2021/11/21 18:58:21;;;;;;;;;;;;;;;3.66;80.21;99264.66;4943161;29;19970;-87
2021/11/21 19:00:53;;;;;;;;;;;;;;;3.63;80.32;99269.06;4943732;29;20319;-85
2021/11/21 19:03:21;;;;;;;;;;;;;;;3.64;79.98;99256.84;4944041;29;19922;-88
2021/11/21 19:05:46;;;;;;;;;;;;;;;3.71;79.89;99262.78;4943956;28;19923;-85
2021/11/21 19:08:12;;;;;;;;;;;;;;;3.66;80.08;99267.28;4943733;29;19922;-84
2021/11/21 19:10:38;;;;;;;;;;;;;;;3.66;80.03;99267.28;4944238;28;19922;-83
2021/11/21 19:13:03;;;;;;;;;;;;;;;3.68;80.16;99265.47;4942128;29;19969;-86
2021/11/21 19:15:29;;;;;;;;;;;;;;;3.66;80.13;99268.13;4943533;29;19981;-84
2021/11/21 19:17:55;;;;;;;;;;;;;;;3.61;79.56;99275.25;4944174;29;19926;-86
2021/11/21 19:20:21;;;;;;;;;;;;;;;3.68;80.10;99271.56;4944544;29;20745;-83
2021/11/21 19:22:49;;;;;;;;;;;;;;;3.57;79.81;99258.72;4944389;29;19918;-84
2021/11/21 19:25:14;;;;;;;;;;;;;;;3.62;80.29;99277.84;4944273;29;19919;-84
2021/11/21 19:27:40;;;;;;;;;;;;;;;3.64;80.53;99275.19;4942458;29;20325;-86
2021/11/21 19:30:06;;;;;;;;;;;;;;;3.63;80.57;99278.69;4944772;28;19993;-87
2021/11/21 19:32:31;;;;;;;;;;;;;;;3.68;80.58;99271.56;4943371;29;19919;-82
2021/11/21 19:34:56;;;;;;;;;;;;;;;3.64;80.31;99283.03;4943399;28;19918;-83
2021/11/21 19:37:22;;;;;;;;;;;;;;;3.69;80.43;99289.03;4943410;29;19923;-84
2021/11/21 19:39:49;;;;;;;;;;;;;;;3.69;80.26;99290.81;4942903;29;19915;-83
2021/11/21 19:42:14;;;;;;;;;;;;;;;3.71;80.51;99296.88;4941544;29;19922;-82
2021/11/21 19:44:40;;;;;;;;;;;;;;;3.75;80.39;99303.75;4950674;29;20006;-82
2021/11/21 19:47:05;;;;;;;;;;;;;;;3.73;80.16;99301.16;4942922;29;19919;-82
2021/11/21 19:49:31;;;;;;;;;;;;;;;3.71;79.79;99304.72;4944351;29;19923;-83
2021/11/21 19:51:57;;;;;;;;;;;;;;;3.72;80.03;99302.06;4942968;29;19981;-83
2021/11/21 19:54:23;;;;;;;;;;;;;;;3.71;80.04;99308.19;4949807;29;19918;-86
2021/11/21 19:56:48;;;;;;;;;;;;;;;3.76;80.03;99311.56;4943090;29;20497;-83
2021/11/21 19:59:13;;;;;;;;;;;;;;;3.80;80.03;99308.00;4944419;28;20363;-83
2021/11/21 20:01:38;;;;;;;;;;;;;;;3.84;80.15;99314.00;4942525;29;19919;-86
2021/11/21 20:04:04;;;;;;;;;;;;;;;3.84;80.01;99313.16;4943780;29;19945;-85
2021/11/21 20:06:29;;;;;;;;;;;;;;;3.87;80.38;99324.44;4942370;29;19926;-84
2021/11/21 20:08:54;;;;;;;;;;;;;;;3.91;80.51;99315.63;4943371;29;20361;-85
2021/11/21 20:11:20;;;;;;;;;;;;;;;3.92;80.32;99327.81;4943922;28;20409;-86
2021/11/21 20:13:51;;;;;;;;;;;;;;;3.89;80.32;99324.41;4942854;28;19962;-86
2021/11/21 20:16:21;;;;;;;;;;;;;;;3.99;80.42;99321.53;4943806;29;19992;-83
2021/11/21 20:18:46;;;;;;;;;;;;;;;3.94;80.39;99325.16;4942897;29;19922;-85
2021/11/21 20:21:12;;;;;;;;;;;;;;;3.94;80.27;99319.91;4943688;29;19925;-85
2021/11/21 20:23:37;;;;;;;;;;;;;;;3.94;80.32;99319.91;4943803;28;20387;-85
2021/11/21 20:26:02;;;;;;;;;;;;;;;3.99;80.39;99324.16;4943277;28;19919;-85
2021/11/21 20:28:28;;;;;;;;;;;;;;;3.96;80.14;99321.59;4941355;29;19918;-85
2021/11/21 20:30:55;;;;;;;;;;;;;;;4.04;80.51;99320.53;4941981;29;19926;-87
2021/11/21 20:36:05;;;;;;;;;;;;;;;4.04;80.20;99339.78;4944254;29;19925;-86
2021/11/21 20:38:32;;;;;;;;;;;;;;;4.08;80.30;99332.69;4943451;28;19927;-83
2021/11/21 20:40:58;;;;;;;;;;;;;;;4.12;80.40;99339.63;4943382;29;20013;-85
2021/11/21 20:43:23;;;;;;;;;;;;;;;4.14;80.37;99348.28;4941929;29;20025;-85
2021/11/21 20:45:48;;;;;;;;;;;;;;;4.18;80.56;99356.06;4943953;28;20263;-84
2021/11/21 20:48:14;;;;;;;;;;;;;;;4.15;80.36;99356.13;4948213;29;20005;-85
2021/11/21 20:50:40;;;;;;;;;;;;;;;4.22;80.89;99348.97;4949850;28;20285;-84
2021/11/21 20:53:08;;;;;;;;;;;;;;;4.26;80.90;99348.00;4948665;29;19923;-84
2021/11/21 20:55:33;;;;;;;;;;;;;;;4.23;80.71;99348.09;4949613;28;19919;-87
2021/11/21 20:57:59;;;;;;;;;;;;;;;4.25;80.78;99346.28;4947786;29;19974;-85
2021/11/21 21:00:24;;;;;;;;;;;;;;;4.28;80.82;99355.84;4949465;28;20013;-85
2021/11/21 21:02:50;;;;;;;;;;;;;;;4.28;80.69;99361.09;4948506;28;19922;-85
2021/11/21 21:05:15;;;;;;;;;;;;;;;4.31;81.07;99358.41;4948919;29;20390;-84
2021/11/21 21:07:41;;;;;;;;;;;;;;;4.34;81.39;99358.28;4949555;28;19918;-82
2021/11/21 21:10:06;;;;;;;;;;;;;;;4.37;81.27;99363.47;4949557;28;20388;-84
2021/11/21 21:12:32;;;;;;;;;;;;;;;4.41;81.16;99359.03;4948039;28;19933;-83
2021/11/21 21:14:58;;;;;;;;;;;;;;;4.38;81.05;99356.47;4948522;29;19922;-85
2021/11/21 21:17:23;;;;;;;;;;;;;;;4.42;81.25;99363.34;4949390;28;20277;-83
2021/11/21 21:19:48;;;;;;;;;;;;;;;4.42;81.28;99361.63;4949859;28;19929;-84
2021/11/21 21:22:14;;;;;;;;;;;;;;;4.45;81.10;99364.16;4949517;28;19989;-83
2021/11/21 21:24:39;;;;;;;;;;;;;;;4.49;81.24;99365.78;4949202;29;20045;-86
2021/11/21 21:27:05;;;;;;;;;;;;;;;4.51;81.52;99357.88;4948253;29;19925;-85
2021/11/21 21:29:30;;;;;;;;;;;;;;;4.51;81.51;99358.75;4949671;28;20375;-86
2021/11/21 21:31:55;;;;;;;;;;;;;;;4.50;81.48;99359.66;4949300;28;19966;-85
2021/11/21 21:34:21;;;;;;;;;;;;;;;4.53;81.63;99361.31;4949241;29;19926;-83
2021/11/21 21:36:47;;;;;;;;;;;;;;;4.55;81.63;99355.16;4949571;28;19918;-83
2021/11/21 21:39:12;;;;;;;;;;;;;;;4.59;81.82;99355.94;4949580;28;19923;-85
2021/11/21 21:41:38;;;;;;;;;;;;;;;4.61;81.94;99353.28;4948066;28;20282;-87
2021/11/21 21:44:04;;;;;;;;;;;;;;;4.64;82.03;99353.19;4949406;28;19922;-83
2021/11/21 21:46:29;;;;;;;;;;;;;;;4.63;82.13;99352.34;4948886;28;19922;-82
2021/11/21 21:48:56;;;;;;;;;;;;;;;4.66;82.08;99346.13;4948980;28;19919;-83
2021/11/21 21:51:21;;;;;;;;;;;;;;;4.66;82.14;99348.75;4948867;28;20318;-83
2021/11/21 21:53:46;;;;;;;;;;;;;;;4.68;82.12;99349.59;4949130;29;19918;-84
2021/11/21 21:56:12;;;;;;;;;;;;;;;4.73;82.25;99345.09;4949539;28;19923;-87
2021/11/21 21:58:37;;;;;;;;;;;;;;;4.73;82.36;99353.81;4945025;28;20014;-83
2021/11/21 22:01:03;;;;;;;;;;;;;;;4.71;82.42;99357.41;4945836;29;19922;-86
2021/11/21 22:03:29;;;;;;;;;;;;;;;4.77;82.51;99354.63;4944673;29;19919;-83
2021/11/21 22:05:56;;;;;;;;;;;;;;;4.78;82.54;99358.09;4952321;28;20441;-85
2021/11/21 22:08:22;;;;;;;;;;;;;;;4.82;82.83;99360.59;4946493;28;19918;-84
2021/11/21 22:10:47;;;;;;;;;;;;;;;4.79;82.72;99363.31;4944905;29;19970;-86
2021/11/21 22:13:15;;;;;;;;;;;;;;;4.86;83.00;99370.09;4944945;29;19933;-83
2021/11/21 22:15:41;;;;;;;;;;;;;;;4.85;82.95;99372.78;4945636;28;19973;-83
2021/11/21 22:18:06;;;;;;;;;;;;;;;4.86;82.99;99375.34;4945753;29;19919;-83
2021/11/21 22:20:31;;;;;;;;;;;;;;;4.90;83.25;99376.16;4945282;29;20009;-86
2021/11/21 22:22:57;;;;;;;;;;;;;;;4.91;83.26;99372.63;4944901;29;20013;-86
2021/11/21 22:25:23;;;;;;;;;;;;;;;4.96;83.32;99375.13;4944594;29;20013;-84
2021/11/21 22:27:49;;;;;;;;;;;;;;;4.98;83.53;99386.44;4944552;29;19922;-85
2021/11/21 22:30:16;;;;;;;;;;;;;;;4.98;83.41;99375.94;4945889;28;19923;-84
2021/11/21 22:32:41;;;;;;;;;;;;;;;4.97;83.58;99382.09;4945585;29;19923;-85
2021/11/21 22:35:07;;;;;;;;;;;;;;;5.01;83.63;99388.97;4945143;29;19923;-83
2021/11/21 22:37:33;;;;;;;;;;;;;;;5.02;83.92;99390.72;4945380;28;19962;-85
2021/11/21 22:39:58;;;;;;;;;;;;;;;5.05;83.87;99385.38;4952220;28;19929;-86
2021/11/21 22:42:24;;;;;;;;;;;;;;;5.07;84.03;99386.19;4943251;29;19925;-87
2021/11/21 22:44:49;;;;;;;;;;;;;;;5.08;84.19;99394.03;4945308;28;19926;-83
2021/11/21 22:47:14;;;;;;;;;;;;;;;5.13;84.37;99393.06;4951012;28;19965;-83